sensor_id;sensor_type;location;lat;lon;timestamp;pressure;altitude;pressure_sealevel;temperature;humidity
10064;BME280;5071;52.360;13.134;2024-01-07T00:01:34;100606.22;;;-1.73;87.12
10064;BME280;5071;52.360;13.134;2024-01-07T00:06:37;100609.56;;;-1.77;85.84
10064;BME280;5071;52.360;13.134;2024-01-07T00:11:39;100615.94;;;-1.69;84.56
10064;BME280;5071;52.360;13.134;2024-01-07T00:16:42;100623.56;;;-1.73;85.64
10064;BME280;5071;52.360;13.134;2024-01-07T00:21:45;100621.03;;;-1.72;86.53
10064;BME280;5071;52.360;13.134;2024-01-07T00:26:47;100621.81;;;-1.74;87.31
10064;BME280;5071;52.360;13.134;2024-01-07T00:31:49;100630.59;;;-1.71;87.28
10064;BME280;5071;52.360;13.134;2024-01-07T00:36:53;100635.69;;;-1.74;86.80
10064;BME280;5071;52.360;13.134;2024-01-07T00:41:55;100647.84;;;-1.73;89.23
10064;BME280;5071;52.360;13.134;2024-01-07T00:46:56;100657.25;;;-1.78;86.67
10064;BME280;5071;52.360;13.134;2024-01-07T00:51:59;100661.66;;;-1.76;87.46
10064;BME280;5071;52.360;13.134;2024-01-07T00:57:02;100659.56;;;-1.86;86.73
10064;BME280;5071;52.360;13.134;2024-01-07T01:02:04;100666.47;;;-1.86;86.79
10064;BME280;5071;52.360;13.134;2024-01-07T01:07:07;100673.50;;;-1.84;86.72
10064;BME280;5071;52.360;13.134;2024-01-07T01:12:09;100681.19;;;-1.87;85.94
10064;BME280;5071;52.360;13.134;2024-01-07T01:17:11;100680.25;;;-1.89;85.76
10064;BME280;5071;52.360;13.134;2024-01-07T01:22:14;100694.06;;;-1.90;87.35
10064;BME280;5071;52.360;13.134;2024-01-07T01:27:16;100700.94;;;-1.92;87.26
10064;BME280;5071;52.360;13.134;2024-01-07T01:32:18;100699.84;;;-1.99;84.67
10064;BME280;5071;52.360;13.134;2024-01-07T01:37:22;100721.09;;;-2.09;84.86
10064;BME280;5071;52.360;13.134;2024-01-07T01:42:24;100730.75;;;-2.06;84.64
10064;BME280;5071;52.360;13.134;2024-01-07T01:47:26;100726.88;;;-2.16;85.00
10064;BME280;5071;52.360;13.134;2024-01-07T01:52:30;100735.41;;;-2.20;84.72
10064;BME280;5071;52.360;13.134;2024-01-07T01:57:33;100730.44;;;-2.14;84.00
10064;BME280;5071;52.360;13.134;2024-01-07T02:02:35;100738.84;;;-2.21;83.67
10064;BME280;5071;52.360;13.134;2024-01-07T02:07:38;100739.50;;;-2.27;81.15
10064;BME280;5071;52.360;13.134;2024-01-07T02:12:40;100736.13;;;-2.24;82.08
10064;BME280;5071;52.360;13.134;2024-01-07T02:17:43;100738.28;;;-2.35;82.89
10064;BME280;5071;52.360;13.134;2024-01-07T02:22:46;100745.22;;;-2.36;81.75
10064;BME280;5071;52.360;13.134;2024-01-07T02:27:49;100737.97;;;-2.43;81.06
10064;BME280;5071;52.360;13.134;2024-01-07T02:32:51;100745.84;;;-2.41;82.46
10064;BME280;5071;52.360;13.134;2024-01-07T02:37:54;100742.09;;;-2.48;80.98
10064;BME280;5071;52.360;13.134;2024-01-07T02:42:57;100737.63;;;-2.52;81.09
10064;BME280;5071;52.360;13.134;2024-01-07T02:47:59;100749.50;;;-2.59;81.49
10064;BME280;5071;52.360;13.134;2024-01-07T02:53:01;100760.63;;;-2.61;80.96
10064;BME280;5071;52.360;13.134;2024-01-07T02:58:05;100764.16;;;-2.59;81.85
10064;BME280;5071;52.360;13.134;2024-01-07T03:03:06;100775.16;;;-2.66;80.88
10064;BME280;5071;52.360;13.134;2024-01-07T03:08:08;100778.31;;;-2.74;80.50
10064;BME280;5071;52.360;13.134;2024-01-07T03:13:12;100774.44;;;-2.83;81.06
10064;BME280;5071;52.360;13.134;2024-01-07T03:18:14;100777.78;;;-2.86;80.73
10064;BME280;5071;52.360;13.134;2024-01-07T03:23:16;100786.41;;;-2.87;81.79
10064;BME280;5071;52.360;13.134;2024-01-07T03:28:19;100796.53;;;-2.93;81.54
10064;BME280;5071;52.360;13.134;2024-01-07T03:33:21;100792.41;;;-3.09;81.56
10064;BME280;5071;52.360;13.134;2024-01-07T03:38:23;100817.34;;;-3.13;81.12
10064;BME280;5071;52.360;13.134;2024-01-07T03:43:27;100810.84;;;-3.22;81.29
10064;BME280;5071;52.360;13.134;2024-01-07T03:48:28;100812.19;;;-3.30;81.53
10064;BME280;5071;52.360;13.134;2024-01-07T03:53:31;100824.28;;;-3.31;82.98
10064;BME280;5071;52.360;13.134;2024-01-07T03:58:35;100825.53;;;-3.42;83.59
10064;BME280;5071;52.360;13.134;2024-01-07T04:03:37;100841.84;;;-3.45;82.98
10064;BME280;5071;52.360;13.134;2024-01-07T04:08:40;100845.78;;;-3.53;83.02
10064;BME280;5071;52.360;13.134;2024-01-07T04:13:43;100857.59;;;-3.60;83.27
10064;BME280;5071;52.360;13.134;2024-01-07T04:18:45;100863.59;;;-3.61;82.64
10064;BME280;5071;52.360;13.134;2024-01-07T04:23:53;100859.97;;;-3.64;82.88
10064;BME280;5071;52.360;13.134;2024-01-07T04:28:56;100873.75;;;-3.65;82.60
10064;BME280;5071;52.360;13.134;2024-01-07T04:33:58;100882.81;;;-3.75;83.51
10064;BME280;5071;52.360;13.134;2024-01-07T04:39:01;100888.81;;;-3.76;82.71
10064;BME280;5071;52.360;13.134;2024-01-07T04:44:05;100888.81;;;-3.76;82.40
10064;BME280;5071;52.360;13.134;2024-01-07T04:49:07;100882.81;;;-3.75;81.34
10064;BME280;5071;52.360;13.134;2024-01-07T04:54:09;100889.66;;;-3.77;81.53
10064;BME280;5071;52.360;13.134;2024-01-07T04:59:12;100885.19;;;-3.80;81.88
10064;BME280;5071;52.360;13.134;2024-01-07T05:04:14;100898.03;;;-3.83;82.50
10064;BME280;5071;52.360;13.134;2024-01-07T05:09:17;100905.78;;;-3.83;81.84
10064;BME280;5071;52.360;13.134;2024-01-07T05:14:20;100911.69;;;-3.85;81.55
10064;BME280;5071;52.360;13.134;2024-01-07T05:19:22;100910.47;;;-3.94;81.98
10064;BME280;5071;52.360;13.134;2024-01-07T05:24:24;100918.22;;;-3.94;82.34
10064;BME280;5071;52.360;13.134;2024-01-07T05:29:28;100924.47;;;-3.90;82.01
10064;BME280;5071;52.360;13.134;2024-01-07T05:34:29;100939.78;;;-3.95;81.69
10064;BME280;5071;52.360;13.134;2024-01-07T05:39:32;100943.03;;;-3.99;82.81
10064;BME280;5071;52.360;13.134;2024-01-07T05:44:35;100951.47;;;-4.03;82.99
10064;BME280;5071;52.360;13.134;2024-01-07T05:49:36;100950.81;;;-3.99;82.67
10064;BME280;5071;52.360;13.134;2024-01-07T05:54:39;100962.06;;;-3.98;82.89
10064;BME280;5071;52.360;13.134;2024-01-07T05:59:43;100974.44;;;-3.93;83.49
10064;BME280;5071;52.360;13.134;2024-01-07T06:04:45;100975.13;;;-3.97;83.28
10064;BME280;5071;52.360;13.134;2024-01-07T06:09:47;100985.31;;;-4.00;83.45
10064;BME280;5071;52.360;13.134;2024-01-07T06:14:50;100976.44;;;-4.05;84.31
10064;BME280;5071;52.360;13.134;2024-01-07T06:19:52;100984.13;;;-4.06;83.82
10064;BME280;5071;52.360;13.134;2024-01-07T06:24:54;100975.22;;;-4.12;83.73
10064;BME280;5071;52.360;13.134;2024-01-07T06:29:58;100982.50;;;-4.04;83.60
10064;BME280;5071;52.360;13.134;2024-01-07T06:35:00;100989.25;;;-4.08;84.26
10064;BME280;5071;52.360;13.134;2024-01-07T06:40:02;100992.28;;;-3.99;84.36
10064;BME280;5071;52.360;13.134;2024-01-07T06:45:07;101004.69;;;-3.93;83.88
10064;BME280;5071;52.360;13.134;2024-01-07T06:50:10;101010.13;;;-3.88;84.92
10064;BME280;5071;52.360;13.134;2024-01-07T06:55:12;101034.88;;;-3.77;83.62
10064;BME280;5071;52.360;13.134;2024-01-07T07:00:16;101030.88;;;-3.71;84.45
10064;BME280;5071;52.360;13.134;2024-01-07T07:05:18;101035.00;;;-3.74;83.56
10064;BME280;5071;52.360;13.134;2024-01-07T07:10:20;101039.69;;;-3.67;83.73
10064;BME280;5071;52.360;13.134;2024-01-07T07:15:23;101046.34;;;-3.72;82.90
10064;BME280;5071;52.360;13.134;2024-01-07T07:20:25;101056.22;;;-3.65;82.83
10064;BME280;5071;52.360;13.134;2024-01-07T07:25:27;101058.44;;;-3.73;82.83
10064;BME280;5071;52.360;13.134;2024-01-07T07:30:30;101067.44;;;-3.66;83.11
10064;BME280;5071;52.360;13.134;2024-01-07T07:35:32;101066.75;;;-3.62;82.45
10064;BME280;5071;52.360;13.134;2024-01-07T07:40:34;101076.47;;;-3.58;82.78
10064;BME280;5071;52.360;13.134;2024-01-07T07:45:37;101074.47;;;-3.45;81.35
10064;BME280;5071;52.360;13.134;2024-01-07T07:50:39;101086.47;;;-3.47;82.24
10064;BME280;5071;52.360;13.134;2024-01-07T07:55:40;101093.94;;;-3.37;80.96
10064;BME280;5071;52.360;13.134;2024-01-07T08:00:44;101100.09;;;-3.35;80.84
10064;BME280;5071;52.360;13.134;2024-01-07T08:05:46;101098.97;;;-3.22;81.17
10064;BME280;5071;52.360;13.134;2024-01-07T08:10:48;101092.84;;;-3.24;80.70
10064;BME280;5071;52.360;13.134;2024-01-07T08:15:51;101099.19;;;-3.18;80.68
10064;BME280;5071;52.360;13.134;2024-01-07T08:20:53;101118.09;;;-3.02;79.09
10064;BME280;5071;52.360;13.134;2024-01-07T08:25:55;101111.00;;;-2.88;80.01
10064;BME280;5071;52.360;13.134;2024-01-07T08:30:59;101110.91;;;-3.08;80.72
10064;BME280;5071;52.360;13.134;2024-01-07T08:36:01;101121.63;;;-3.02;79.54
10064;BME280;5071;52.360;13.134;2024-01-07T08:41:03;101124.72;;;-2.91;79.51
10064;BME280;5071;52.360;13.134;2024-01-07T08:46:06;101131.25;;;-2.99;80.80
10064;BME280;5071;52.360;13.134;2024-01-07T08:51:08;101143.78;;;-2.72;79.33
10064;BME280;5071;52.360;13.134;2024-01-07T08:56:12;101142.91;;;-2.55;79.94
10064;BME280;5071;52.360;13.134;2024-01-07T09:01:15;101140.06;;;-2.60;79.25
10064;BME280;5071;52.360;13.134;2024-01-07T09:06:17;101139.03;;;-2.63;79.70
10064;BME280;5071;52.360;13.134;2024-01-07T09:11:19;101127.22;;;-2.57;80.94
10064;BME280;5071;52.360;13.134;2024-01-07T09:16:23;101135.13;;;-2.36;79.22
10064;BME280;5071;52.360;13.134;2024-01-07T09:21:25;101132.53;;;-2.36;79.98
10064;BME280;5071;52.360;13.134;2024-01-07T09:26:27;101142.03;;;-2.17;78.32
10064;BME280;5071;52.360;13.134;2024-01-07T09:31:30;101142.66;;;-2.22;79.03
10064;BME280;5071;52.360;13.134;2024-01-07T09:36:32;101143.34;;;-2.26;79.87
10064;BME280;5071;52.360;13.134;2024-01-07T09:41:34;101144.09;;;-2.29;81.57
10064;BME280;5071;52.360;13.134;2024-01-07T09:46:39;101136.22;;;-2.11;81.54
10064;BME280;5071;52.360;13.134;2024-01-07T09:51:45;101134.66;;;-2.07;83.03
10064;BME280;5071;52.360;13.134;2024-01-07T09:56:50;101133.91;;;-1.85;80.42
10064;BME280;5071;52.360;13.134;2024-01-07T10:01:57;101134.47;;;-2.12;80.46
10064;BME280;5071;52.360;13.134;2024-01-07T10:07:00;101135.28;;;-1.93;80.00
10064;BME280;5071;52.360;13.134;2024-01-07T10:12:02;101135.41;;;-1.90;81.35
10064;BME280;5071;52.360;13.134;2024-01-07T10:17:14;101129.94;;;-1.77;80.87
10064;BME280;5071;52.360;13.134;2024-01-07T10:22:16;101133.91;;;-2.05;81.44
10064;BME280;5071;52.360;13.134;2024-01-07T10:27:18;101133.31;;;-1.80;83.52
10064;BME280;5071;52.360;13.134;2024-01-07T10:32:21;101138.56;;;-1.98;84.54
10064;BME280;5071;52.360;13.134;2024-01-07T10:37:23;101150.50;;;-1.83;84.36
10064;BME280;5071;52.360;13.134;2024-01-07T10:42:26;101151.88;;;-1.91;87.22
10064;BME280;5071;52.360;13.134;2024-01-07T10:47:30;101140.47;;;-2.13;87.18
10064;BME280;5071;52.360;13.134;2024-01-07T10:52:32;101140.34;;;-2.16;87.39
10064;BME280;5071;52.360;13.134;2024-01-07T10:57:42;101144.06;;;-1.91;86.63
10064;BME280;5071;52.360;13.134;2024-01-07T11:03:04;101134.31;;;-2.15;87.92
10064;BME280;5071;52.360;13.134;2024-01-07T11:08:15;101126.25;;;-2.02;89.15
10064;BME280;5071;52.360;13.134;2024-01-07T11:13:33;101125.56;;;-1.98;89.01
10064;BME280;5071;52.360;13.134;2024-01-07T11:18:39;101127.91;;;-2.04;89.98
10064;BME280;5071;52.360;13.134;2024-01-07T11:23:43;101127.81;;;-2.05;90.68
10064;BME280;5071;52.360;13.134;2024-01-07T11:28:47;101121.25;;;-1.78;89.33
10064;BME280;5071;52.360;13.134;2024-01-07T11:33:50;101117.28;;;-1.89;89.33
10064;BME280;5071;52.360;13.134;2024-01-07T11:38:53;101128.66;;;-1.87;89.72
10064;BME280;5071;52.360;13.134;2024-01-07T11:43:57;101124.09;;;-1.71;89.15
10064;BME280;5071;52.360;13.134;2024-01-07T11:49:09;101120.91;;;-1.85;90.86
10064;BME280;5071;52.360;13.134;2024-01-07T11:54:12;101120.66;;;-1.91;90.02
10064;BME280;5071;52.360;13.134;2024-01-07T11:59:14;101120.41;;;-1.77;91.19
10064;BME280;5071;52.360;13.134;2024-01-07T12:04:17;101120.06;;;-1.65;92.21
10064;BME280;5071;52.360;13.134;2024-01-07T12:09:20;101111.13;;;-1.50;90.82
10064;BME280;5071;52.360;13.134;2024-01-07T12:14:21;101119.69;;;-1.53;91.91
10064;BME280;5071;52.360;13.134;2024-01-07T12:19:25;101116.72;;;-1.41;92.05
10064;BME280;5071;52.360;13.134;2024-01-07T12:24:27;101113.59;;;-1.53;92.20
10064;BME280;5071;52.360;13.134;2024-01-07T12:29:29;101104.16;;;-1.71;92.28
10064;BME280;5071;52.360;13.134;2024-01-07T12:34:32;101105.25;;;-1.66;93.78
10064;BME280;5071;52.360;13.134;2024-01-07T12:39:35;101102.56;;;-1.48;93.30
10064;BME280;5071;52.360;13.134;2024-01-07T12:44:37;101111.78;;;-1.35;92.52
10064;BME280;5071;52.360;13.134;2024-01-07T12:49:41;101117.88;;;-1.55;93.35
10064;BME280;5071;52.360;13.134;2024-01-07T12:54:43;101132.53;;;-1.58;94.42
10064;BME280;5071;52.360;13.134;2024-01-07T12:59:45;101125.66;;;-1.55;94.26
10064;BME280;5071;52.360;13.134;2024-01-07T13:04:49;101120.78;;;-1.27;94.14
10064;BME280;5071;52.360;13.134;2024-01-07T13:09:51;101126.56;;;-1.34;94.23
10064;BME280;5071;52.360;13.134;2024-01-07T13:14:53;101132.03;;;-1.28;93.66
10064;BME280;5071;52.360;13.134;2024-01-07T13:19:57;101131.06;;;-1.30;94.65
10064;BME280;5071;52.360;13.134;2024-01-07T13:25:00;101130.03;;;-1.33;94.28
10064;BME280;5071;52.360;13.134;2024-01-07T13:30:03;101130.81;;;-1.36;95.54
10064;BME280;5071;52.360;13.134;2024-01-07T13:35:07;101130.56;;;-1.42;95.78
10064;BME280;5071;52.360;13.134;2024-01-07T13:40:10;101135.78;;;-1.42;95.78
10064;BME280;5071;52.360;13.134;2024-01-07T13:45:13;101129.31;;;-1.31;97.05
10064;BME280;5071;52.360;13.134;2024-01-07T13:50:16;101128.03;;;-1.41;96.81
10064;BME280;5071;52.360;13.134;2024-01-07T13:55:18;101128.53;;;-1.28;96.63
10064;BME280;5071;52.360;13.134;2024-01-07T14:00:21;101130.81;;;-1.36;97.65
10064;BME280;5071;52.360;13.134;2024-01-07T14:05:24;101146.59;;;-1.33;98.23
10064;BME280;5071;52.360;13.134;2024-01-07T14:12:03;101146.84;;;-1.27;96.88
10064;BME280;5071;52.360;13.134;2024-01-07T14:17:05;101137.19;;;-1.29;98.29
10064;BME280;5071;52.360;13.134;2024-01-07T14:22:07;101148.09;;;-1.17;97.42
10064;BME280;5071;52.360;13.134;2024-01-07T14:27:11;101146.03;;;-1.26;98.29
10064;BME280;5071;52.360;13.134;2024-01-07T14:32:13;101150.38;;;-1.25;98.92
10064;BME280;5071;52.360;13.134;2024-01-07T14:37:16;101145.25;;;-1.23;97.64
10064;BME280;5071;52.360;13.134;2024-01-07T14:42:19;101156.56;;;-1.23;97.06
10064;BME280;5071;52.360;13.134;2024-01-07T14:47:21;101151.56;;;-1.18;98.17
10064;BME280;5071;52.360;13.134;2024-01-07T14:52:23;101158.53;;;-1.17;97.26
10064;BME280;5071;52.360;13.134;2024-01-07T14:57:27;101160.38;;;-1.14;96.99
10064;BME280;5071;52.360;13.134;2024-01-07T15:02:29;101170.72;;;-1.16;96.57
10064;BME280;5071;52.360;13.134;2024-01-07T15:07:31;101169.16;;;-1.12;95.88
10064;BME280;5071;52.360;13.134;2024-01-07T15:12:34;101176.66;;;-0.99;95.79
10064;BME280;5071;52.360;13.134;2024-01-07T15:17:37;101188.66;;;-1.03;96.02
10064;BME280;5071;52.360;13.134;2024-01-07T15:22:39;101185.84;;;-1.07;95.00
10064;BME280;5071;52.360;13.134;2024-01-07T15:27:42;101192.69;;;-1.09;95.38
10064;BME280;5071;52.360;13.134;2024-01-07T15:32:44;101197.72;;;-1.14;95.63
10064;BME280;5071;52.360;13.134;2024-01-07T15:37:46;101206.44;;;-1.13;96.36
10064;BME280;5071;52.360;13.134;2024-01-07T15:42:50;101204.78;;;-1.11;96.36
10064;BME280;5071;52.360;13.134;2024-01-07T15:47:52;101203.69;;;-1.17;96.36
10064;BME280;5071;52.360;13.134;2024-01-07T15:52:54;101203.69;;;-1.17;97.46
10064;BME280;5071;52.360;13.134;2024-01-07T15:57:57;101218.25;;;-1.22;97.99
10064;BME280;5071;52.360;13.134;2024-01-07T16:03:00;101209.66;;;-1.19;97.94
10064;BME280;5071;52.360;13.134;2024-01-07T16:08:02;101218.25;;;-1.22;98.19
10064;BME280;5071;52.360;13.134;2024-01-07T16:13:05;101221.66;;;-1.23;98.01
10064;BME280;5071;52.360;13.134;2024-01-07T16:18:08;101221.91;;;-1.17;98.06
10064;BME280;5071;52.360;13.134;2024-01-07T16:23:10;101223.31;;;-1.25;99.12
10064;BME280;5071;52.360;13.134;2024-01-07T16:28:14;101226.75;;;-1.26;99.07
10064;BME280;5071;52.360;13.134;2024-01-07T16:33:16;101232.06;;;-1.23;97.92
10064;BME280;5071;52.360;13.134;2024-01-07T16:38:18;101239.69;;;-1.27;98.96
10064;BME280;5071;52.360;13.134;2024-01-07T16:43:21;101232.91;;;-1.24;96.70
10064;BME280;5071;52.360;13.134;2024-01-07T16:48:24;101245.53;;;-1.33;97.99
10064;BME280;5071;52.360;13.134;2024-01-07T16:53:46;101239.31;;;-1.37;97.02
10064;BME280;5071;52.360;13.134;2024-01-07T16:58:49;101249.91;;;-1.32;96.04
10064;BME280;5071;52.360;13.134;2024-01-07T17:03:51;101262.19;;;-1.29;96.27
10064;BME280;5071;52.360;13.134;2024-01-07T17:08:53;101260.47;;;-1.29;95.58
10064;BME280;5071;52.360;13.134;2024-01-07T17:13:57;101270.75;;;-1.12;93.42
10064;BME280;5071;52.360;13.134;2024-01-07T17:18:59;101283.97;;;-1.27;94.91
10064;BME280;5071;52.360;13.134;2024-01-07T17:24:01;101288.97;;;-1.12;94.24
10064;BME280;5071;52.360;13.134;2024-01-07T17:29:05;101283.53;;;-1.17;93.58
10064;BME280;5071;52.360;13.134;2024-01-07T17:34:07;101292.72;;;-1.06;89.99
10064;BME280;5071;52.360;13.134;2024-01-07T17:39:08;101304.63;;;-1.11;88.95
10064;BME280;5071;52.360;13.134;2024-01-07T17:44:12;101304.19;;;-1.22;90.41
10064;BME280;5071;52.360;13.134;2024-01-07T17:49:14;101306.09;;;-1.18;88.23
10064;BME280;5071;52.360;13.134;2024-01-07T17:54:16;101314.59;;;-1.22;87.92
10064;BME280;5071;52.360;13.134;2024-01-07T17:59:20;101321.66;;;-1.19;86.53
10064;BME280;5071;52.360;13.134;2024-01-07T18:04:22;101337.91;;;-1.25;86.24
10064;BME280;5071;52.360;13.134;2024-01-07T18:09:24;101338.84;;;-1.23;86.20
10064;BME280;5071;52.360;13.134;2024-01-07T18:14:27;101342.31;;;-1.24;86.96
10064;BME280;5071;52.360;13.134;2024-01-07T18:19:30;101342.84;;;-1.31;87.38
10064;BME280;5071;52.360;13.134;2024-01-07T18:24:32;101344.41;;;-1.34;88.43
10064;BME280;5071;52.360;13.134;2024-01-07T18:29:35;101348.16;;;-1.28;87.91
10064;BME280;5071;52.360;13.134;2024-01-07T18:34:38;101351.34;;;-1.35;87.07
10064;BME280;5071;52.360;13.134;2024-01-07T18:39:40;101350.75;;;-1.47;87.11
10064;BME280;5071;52.360;13.134;2024-01-07T18:44:44;101358.03;;;-1.40;87.39
10064;BME280;5071;52.360;13.134;2024-01-07T18:49:46;101346.16;;;-1.53;87.94
10064;BME280;5071;52.360;13.134;2024-01-07T18:54:48;101357.16;;;-1.41;86.61
10064;BME280;5071;52.360;13.134;2024-01-07T18:59:51;101359.53;;;-1.45;86.61
10064;BME280;5071;52.360;13.134;2024-01-07T19:04:53;101368.31;;;-1.43;87.58
10064;BME280;5071;52.360;13.134;2024-01-07T19:09:55;101380.28;;;-1.47;86.36
10064;BME280;5071;52.360;13.134;2024-01-07T19:14:59;101375.47;;;-1.57;85.32
10064;BME280;5071;52.360;13.134;2024-01-07T19:20:01;101374.00;;;-1.52;84.65
10064;BME280;5071;52.360;13.134;2024-01-07T19:25:04;101379.66;;;-1.61;84.53
10064;BME280;5071;52.360;13.134;2024-01-07T19:30:08;101381.38;;;-1.61;81.99
10064;BME280;5071;52.360;13.134;2024-01-07T19:35:11;101394.38;;;-1.61;82.18
10064;BME280;5071;52.360;13.134;2024-01-07T19:40:13;101404.78;;;-1.79;83.08
10064;BME280;5071;52.360;13.134;2024-01-07T19:45:17;101419.06;;;-1.89;81.47
10064;BME280;5071;52.360;13.134;2024-01-07T19:50:20;101423.81;;;-1.98;81.79
10064;BME280;5071;52.360;13.134;2024-01-07T19:55:22;101430.38;;;-2.06;79.88
10064;BME280;5071;52.360;13.134;2024-01-07T20:00:26;101424.69;;;-2.16;77.62
10064;BME280;5071;52.360;13.134;2024-01-07T20:05:28;101432.63;;;-2.12;79.06
10064;BME280;5071;52.360;13.134;2024-01-07T20:10:30;101431.38;;;-2.21;78.34
10064;BME280;5071;52.360;13.134;2024-01-07T20:15:34;101450.94;;;-2.27;79.03
10064;BME280;5071;52.360;13.134;2024-01-07T20:20:36;101462.78;;;-2.50;78.19
10064;BME280;5071;52.360;13.134;2024-01-07T20:25:39;101457.81;;;-2.95;73.75
10064;BME280;5071;52.360;13.134;2024-01-07T20:30:42;101476.31;;;-3.05;71.43
10064;BME280;5071;52.360;13.134;2024-01-07T20:35:44;101479.84;;;-3.20;70.79
10064;BME280;5071;52.360;13.134;2024-01-07T20:40:46;101478.25;;;-3.49;70.95
10064;BME280;5071;52.360;13.134;2024-01-07T20:45:49;101484.06;;;-3.68;71.36
10064;BME280;5071;52.360;13.134;2024-01-07T20:50:52;101485.00;;;-3.82;71.10
10064;BME280;5071;52.360;13.134;2024-01-07T20:55:54;101481.69;;;-3.95;70.14
10064;BME280;5071;52.360;13.134;2024-01-07T21:00:58;101486.72;;;-4.13;68.51
10064;BME280;5071;52.360;13.134;2024-01-07T21:06:00;101487.25;;;-4.18;68.76
10064;BME280;5071;52.360;13.134;2024-01-07T21:11:02;101501.06;;;-4.33;69.27
10064;BME280;5071;52.360;13.134;2024-01-07T21:16:06;101494.00;;;-4.50;65.97
10064;BME280;5071;52.360;13.134;2024-01-07T21:21:08;101500.81;;;-4.65;63.22
10064;BME280;5071;52.360;13.134;2024-01-07T21:26:10;101506.22;;;-4.76;62.42
10064;BME280;5071;52.360;13.134;2024-01-07T21:31:19;101506.47;;;-4.99;61.73
10064;BME280;5071;52.360;13.134;2024-01-07T21:36:21;101505.16;;;-5.21;62.12
10064;BME280;5071;52.360;13.134;2024-01-07T21:41:23;101508.84;;;-5.31;60.05
10064;BME280;5071;52.360;13.134;2024-01-07T21:46:26;101507.44;;;-5.39;59.14
10064;BME280;5071;52.360;13.134;2024-01-07T21:51:31;101519.28;;;-5.56;59.34
10064;BME280;5071;52.360;13.134;2024-01-07T21:56:34;101518.78;;;-5.63;60.58
10064;BME280;5071;52.360;13.134;2024-01-07T22:01:37;101519.59;;;-5.78;58.81
10064;BME280;5071;52.360;13.134;2024-01-07T22:06:40;101535.38;;;-5.87;60.27
10064;BME280;5071;52.360;13.134;2024-01-07T22:11:42;101535.75;;;-5.94;59.89
10064;BME280;5071;52.360;13.134;2024-01-07T22:16:45;101548.00;;;-6.04;60.77
10064;BME280;5071;52.360;13.134;2024-01-07T22:21:47;101545.09;;;-6.09;63.29
10064;BME280;5071;52.360;13.134;2024-01-07T22:26:49;101555.81;;;-6.16;64.77
10064;BME280;5071;52.360;13.134;2024-01-07T22:31:53;101569.63;;;-6.41;66.41
10064;BME280;5071;52.360;13.134;2024-01-07T22:36:55;101572.59;;;-6.48;69.14
10064;BME280;5071;52.360;13.134;2024-01-07T22:41:57;101584.19;;;-6.67;69.85
10064;BME280;5071;52.360;13.134;2024-01-07T22:47:01;101579.19;;;-6.77;71.13
10064;BME280;5071;52.360;13.134;2024-01-07T22:52:03;101581.69;;;-6.90;73.10
10064;BME280;5071;52.360;13.134;2024-01-07T22:57:05;101585.75;;;-6.94;74.29
10064;BME280;5071;52.360;13.134;2024-01-07T23:02:09;101589.66;;;-6.99;73.84
10064;BME280;5071;52.360;13.134;2024-01-07T23:07:11;101601.25;;;-7.06;74.86
10064;BME280;5071;52.360;13.134;2024-01-07T23:12:13;101596.63;;;-7.10;75.27
10064;BME280;5071;52.360;13.134;2024-01-07T23:17:16;101598.75;;;-7.16;76.53
10064;BME280;5071;52.360;13.134;2024-01-07T23:22:19;101600.56;;;-7.27;76.53
10064;BME280;5071;52.360;13.134;2024-01-07T23:27:21;101611.88;;;-7.25;77.64
10064;BME280;5071;52.360;13.134;2024-01-07T23:32:25;101623.44;;;-7.31;77.38
10064;BME280;5071;52.360;13.134;2024-01-07T23:37:27;101623.00;;;-7.37;77.55
10064;BME280;5071;52.360;13.134;2024-01-07T23:42:29;101631.81;;;-7.46;78.51
10064;BME280;5071;52.360;13.134;2024-01-07T23:47:32;101632.06;;;-7.43;78.55
10064;BME280;5071;52.360;13.134;2024-01-07T23:52:39;101633.97;;;-7.52;78.50
10064;BME280;5071;52.360;13.134;2024-01-07T23:57:41;101642.00;;;-7.59;79.47
